Time;durP1;ratioP1;P1;durP2;ratioP2;P2;SDS_P1;SDS_P2;PMS_P1;PMS_P2;Temp;Humidity;BMP_temperature;BMP_pressure;BME280_temperature;BME280_humidity;BME280_pressure;Samples;Min_cycle;Max_cycle;Signal;HPM_P1;HPM_P2
2022/11/07 00:02:02;;;;;;;5.07;3.53;;;;;;;8.04;100.00;154548.03;4989614;28;20062;-73
2022/11/07 00:04:29;;;;;;;4.05;3.47;;;;;;;8.06;100.00;154554.47;4998241;28;20026;-73
2022/11/07 00:06:55;;;;;;;3.92;3.35;;;;;;;8.12;100.00;154568.56;5005290;28;20129;-72
2022/11/07 00:09:21;;;;;;;3.83;3.25;;;;;;;8.16;100.00;154578.78;4974404;28;20049;-73
2022/11/07 00:11:47;;;;;;;6.53;3.30;;;;;;;8.17;100.00;154581.31;4989564;28;20029;-73
2022/11/07 00:14:15;;;;;;;3.58;3.13;;;;;;;8.21;100.00;154591.56;5004543;28;20088;-73
2022/11/07 00:16:42;;;;;;;7.05;3.83;;;;;;;8.25;100.00;154600.53;5022436;28;20034;-72
2022/11/07 00:19:08;;;;;;;4.95;3.33;;;;;;;8.29;100.00;154612.09;5006191;28;20053;-73
2022/11/07 00:21:33;;;;;;;4.40;3.22;;;;;;;8.29;100.00;154612.09;4975710;28;20080;-73
2022/11/07 00:23:59;;;;;;;7.63;3.97;;;;;;;8.30;100.00;154613.34;4989130;28;20029;-73
2022/11/07 00:26:25;;;;;;;4.43;3.33;;;;;;;8.33;100.00;154621.06;5001501;28;20205;-72
2022/11/07 00:28:52;;;;;;;7.75;3.67;;;;;;;8.33;100.00;154622.34;4990264;28;20078;-73
2022/11/07 00:31:18;;;;;;;6.07;3.40;;;;;;;8.35;100.00;154626.19;5021521;28;20030;-73
2022/11/07 00:33:44;;;;;;;6.10;3.40;;;;;;;8.39;100.00;154637.69;5021508;28;20032;-73
2022/11/07 00:36:28;;;;;;;5.10;3.40;;;;;;;8.34;100.00;154624.91;5020108;28;20045;-72
2022/11/07 00:38:54;;;;;;;4.50;3.40;;;;;;;8.41;100.00;154641.53;5001707;28;20036;-73
2022/11/07 00:41:21;;;;;;;3.92;3.45;;;;;;;8.36;100.00;154628.72;5019505;28;20906;-73
2022/11/07 00:43:47;;;;;;;3.72;2.90;;;;;;;8.37;100.00;154632.56;4981799;28;20034;-73
2022/11/07 00:46:14;;;;;;;4.93;3.40;;;;;;;8.40;100.00;154639.00;5000309;28;20450;-73
2022/11/07 00:48:40;;;;;;;7.75;3.35;;;;;;;8.46;100.00;154653.16;5004315;28;20117;-72
2022/11/07 00:51:10;;;;;;;6.22;3.17;;;;;;;8.54;100.00;154673.63;5005208;28;20576;-73
2022/11/07 00:53:37;;;;;;;3.53;3.10;;;;;;;8.53;100.00;154671.03;4988294;28;20238;-73
2022/11/07 00:56:05;;;;;;;5.22;3.60;;;;;;;8.52;100.00;154668.50;4982787;28;20038;-73
2022/11/07 00:58:31;;;;;;;4.97;2.72;;;;;;;8.62;100.00;154692.84;5004185;28;20515;-73
2022/11/07 01:00:58;;;;;;;4.75;3.08;;;;;;;8.64;100.00;154699.22;4999561;28;20104;-72
2022/11/07 01:06:10;;;;;;;6.35;3.30;;;;;;;8.79;100.00;154735.13;5004114;28;20049;-73
2022/11/07 01:08:36;;;;;;;5.50;3.00;;;;;;;8.82;100.00;154742.84;5004435;28;20042;-73
2022/11/07 01:11:05;;;;;;;5.38;2.70;;;;;;;8.89;100.00;154762.06;5003781;28;20476;-72
2022/11/07 01:13:34;;;;;;;5.93;2.53;;;;;;;8.87;100.00;154756.94;5003409;28;20061;-73
2022/11/07 01:15:59;;;;;;;4.90;2.60;;;;;;;8.94;100.00;154773.56;5004881;28;20820;-74
2022/11/07 01:18:25;;;;;;;4.45;2.78;;;;;;;8.94;100.00;154773.56;5003823;28;20053;-73
2022/11/07 01:20:51;;;;;;;4.60;2.92;;;;;;;8.96;100.00;154779.97;4987557;28;20030;-74
2022/11/07 01:23:18;;;;;;;4.63;2.63;;;;;;;8.98;100.00;154783.81;5003330;28;20033;-73
2022/11/07 01:25:45;;;;;;;3.90;2.90;;;;;;;9.04;100.00;154799.22;4999770;28;20038;-73
2022/11/07 01:28:11;;;;;;;6.25;2.47;;;;;;;9.07;100.00;154806.88;5001676;28;20802;-73
2022/11/07 01:30:41;;;;;;;4.43;2.65;;;;;;;9.13;100.00;154820.97;4994243;28;20074;-73
2022/11/07 01:33:07;;;;;;;5.13;2.88;;;;;;;9.10;100.00;154814.59;4987257;28;20037;-72
2022/11/07 01:35:33;;;;;;;5.07;2.47;;;;;;;9.18;100.00;154833.81;5003274;28;20478;-71
2022/11/07 01:37:59;;;;;;;6.22;2.95;;;;;;;9.16;100.00;154828.69;5005326;28;20029;-73
2022/11/07 01:40:26;;;;;;;4.65;2.75;;;;;;;9.16;100.00;154828.69;5003489;28;20037;-73
2022/11/07 01:42:53;;;;;;;8.18;3.03;;;;;;;9.18;100.00;154832.53;5016674;28;20045;-74
2022/11/07 01:45:25;;;;;;;5.07;2.80;;;;;;;9.11;100.00;154817.13;4998828;28;20506;-73
2022/11/07 01:47:55;;;;;;;4.85;2.78;;;;;;;9.04;100.00;154799.22;4987575;28;20063;-73
2022/11/07 01:50:22;;;;;;;4.30;2.67;;;;;;;9.00;100.00;154787.66;4987718;28;20113;-73
2022/11/07 01:52:50;;;;;;;5.13;2.70;;;;;;;9.00;100.00;154787.66;4987295;28;20112;-73
2022/11/07 01:55:32;;;;;;;5.20;2.53;;;;;;;8.93;100.00;154772.28;5002403;28;20117;-73
2022/11/07 01:58:02;;;;;;;4.33;2.60;;;;;;;8.97;100.00;154781.28;4986983;28;20048;-73
2022/11/07 02:00:29;;;;;;;5.97;2.45;;;;;;;8.92;100.00;154769.72;4987105;28;20050;-73
2022/11/07 02:03:01;;;;;;;4.22;2.80;;;;;;;8.84;100.00;154749.22;4986828;28;20406;-73
2022/11/07 02:05:34;;;;;;;6.57;2.85;;;;;;;8.93;100.00;154771.03;4987624;28;20044;-73
2022/11/07 02:08:03;;;;;;;4.93;2.65;;;;;;;9.01;100.00;154790.25;4968568;28;20042;-73
2022/11/07 02:10:29;;;;;;;3.80;2.80;;;;;;;9.01;100.00;154790.25;5002690;28;20091;-73
2022/11/07 02:12:57;;;;;;;5.88;2.88;;;;;;;9.11;100.00;154817.13;4986847;28;20030;-73
2022/11/07 02:15:25;;;;;;;4.90;2.60;;;;;;;9.12;100.00;154819.72;4977796;28;20052;-73
2022/11/07 02:17:51;;;;;;;4.22;3.00;;;;;;;9.08;100.00;154808.16;4998389;28;20125;-73
2022/11/07 02:20:17;;;;;;;8.90;2.90;;;;;;;9.13;100.00;154822.25;5006664;28;20077;-73
2022/11/07 02:22:50;;;;;;;7.35;2.50;;;;;;;9.18;100.00;154832.53;4975790;28;20030;-73
2022/11/07 02:25:18;;;;;;;4.03;2.50;;;;;;;9.12;100.00;154818.44;5023636;28;20041;-73
2022/11/07 02:27:47;;;;;;;2.92;2.42;;;;;;;9.12;100.00;154818.44;4990589;28;20068;-73
2022/11/07 02:30:19;;;;;;;4.03;2.55;;;;;;;9.10;100.00;154814.59;4985096;28;20133;-73
2022/11/07 02:32:46;;;;;;;5.55;2.70;;;;;;;9.18;100.00;154833.81;4989180;28;20025;-73
2022/11/07 02:35:33;;;;;;;5.80;2.70;;;;;;;9.22;100.00;154842.78;5007734;28;20033;-73
2022/11/07 02:38:00;;;;;;;4.25;2.40;;;;;;;9.27;100.00;154856.88;5007191;28;20048;-73
2022/11/07 02:40:29;;;;;;;6.45;2.60;;;;;;;9.31;100.00;154865.88;4975218;28;20030;-72
2022/11/07 02:42:57;;;;;;;5.22;2.53;;;;;;;9.33;100.00;154871.00;4991486;28;20037;-73
2022/11/07 02:45:28;;;;;;;4.90;2.42;;;;;;;9.43;100.00;154896.59;4989260;28;20048;-73
2022/11/07 02:47:54;;;;;;;7.38;2.65;;;;;;;9.43;100.00;154895.34;4990920;28;20045;-73
2022/11/07 02:50:20;;;;;;;8.40;2.55;;;;;;;9.40;100.00;154887.63;4973836;28;20045;-73
2022/11/07 02:52:46;;;;;;;5.72;2.50;;;;;;;9.44;100.00;154897.94;4975773;28;20048;-73
2022/11/07 02:55:13;;;;;;;7.50;2.58;;;;;;;9.41;100.00;154891.50;5021759;28;20038;-73
2022/11/07 02:57:39;;;;;;;5.22;2.40;;;;;;;9.43;100.00;154895.34;4989599;28;20902;-73
2022/11/07 03:00:06;;;;;;;6.53;2.60;;;;;;;9.54;100.00;154923.56;5008102;28;20117;-74
2022/11/07 03:02:32;;;;;;;6.50;2.20;;;;;;;9.55;100.00;154926.13;4988443;28;20045;-73
2022/11/07 03:04:57;;;;;;;3.35;2.10;;;;;;;9.58;100.00;154933.78;5004573;28;20050;-73
2022/11/07 03:07:24;;;;;;;4.32;2.05;;;;;;;9.56;100.00;154928.66;5003610;28;20036;-74
2022/11/07 03:09:49;;;;;;;4.97;2.25;;;;;;;9.60;100.00;154938.91;4973952;28;20124;-73
2022/11/07 03:12:15;;;;;;;7.45;2.38;;;;;;;9.58;100.00;154932.53;5004755;28;20038;-73
2022/11/07 03:14:40;;;;;;;3.33;2.08;;;;;;;9.64;100.00;154947.91;5023450;28;20480;-73
2022/11/07 03:17:06;;;;;;;6.10;2.10;;;;;;;9.71;100.00;154965.84;5021992;28;20467;-74
2022/11/07 03:19:32;;;;;;;5.72;2.15;;;;;;;9.75;100.00;154977.38;5009147;28;20095;-73
2022/11/07 03:21:58;;;;;;;5.10;2.22;;;;;;;9.80;100.00;154987.69;5010530;28;20411;-73
2022/11/07 03:24:24;;;;;;;6.10;2.20;;;;;;;9.80;100.00;154988.94;4991312;28;20030;-73
2022/11/07 03:26:49;;;;;;;5.35;2.47;;;;;;;9.79;100.00;154986.34;5011661;28;20033;-73
2022/11/07 03:29:15;;;;;;;5.65;2.55;;;;;;;9.80;100.00;154988.94;5005329;28;20109;-73
2022/11/07 03:31:40;;;;;;;4.05;2.00;;;;;;;9.86;100.00;155004.31;5009054;28;20399;-73
2022/11/07 03:34:06;;;;;;;8.98;2.50;;;;;;;9.83;100.00;154996.66;5007304;28;20091;-73
2022/11/07 03:36:32;;;;;;;8.25;1.98;;;;;;;9.89;100.00;155010.75;4992121;28;20511;-73
2022/11/07 03:38:59;;;;;;;8.57;2.40;;;;;;;9.90;100.00;155013.31;4976019;28;20125;-74
2022/11/07 03:41:24;;;;;;;7.78;2.60;;;;;;;9.93;100.00;155022.28;5018779;28;20029;-73
2022/11/07 03:43:50;;;;;;;4.30;1.90;;;;;;;10.01;100.00;155040.25;5008385;28;20079;-73
2022/11/07 03:46:16;;;;;;;6.68;2.33;;;;;;;9.92;100.00;155019.69;5009004;28;20049;-73
2022/11/07 03:48:42;;;;;;;8.25;2.33;;;;;;;9.90;100.00;155013.31;4999174;28;20050;-73
2022/11/07 03:51:09;;;;;;;5.15;2.13;;;;;;;9.88;100.00;155008.19;5021732;28;20395;-73
2022/11/07 03:53:35;;;;;;;6.57;2.28;;;;;;;9.94;100.00;155024.88;5006889;28;20041;-73
2022/11/07 03:56:09;;;;;;;5.88;2.13;;;;;;;9.94;100.00;155024.88;5001883;28;20030;-73
2022/11/07 03:58:35;;;;;;;7.60;2.30;;;;;;;9.96;100.00;155028.69;4999900;28;20080;-74
2022/11/07 04:01:01;;;;;;;6.22;2.03;;;;;;;9.93;100.00;155022.28;5008089;28;20042;-73
2022/11/07 04:03:27;;;;;;;3.85;1.95;;;;;;;9.94;100.00;155024.88;5007716;28;20148;-73
2022/11/07 04:05:52;;;;;;;8.80;2.50;;;;;;;10.02;100.00;155044.09;5023536;28;20105;-73
2022/11/07 04:08:18;;;;;;;9.60;2.97;;;;;;;9.96;100.00;155028.69;5023025;28;20491;-74
2022/11/07 04:10:43;;;;;;;4.85;2.10;;;;;;;10.02;100.00;155044.09;4974759;28;20034;-73
2022/11/07 04:18:34;;;;;;;7.22;2.30;;;;;;;10.08;100.00;155058.22;4997507;28;20033;-73
2022/11/07 04:21:00;;;;;;;3.70;2.08;;;;;;;10.06;100.00;155053.09;5004727;28;20088;-73
2022/11/07 04:23:25;;;;;;;7.03;2.22;;;;;;;10.07;100.00;155056.91;4991270;28;20096;-74
2022/11/07 04:28:35;;;;;;;4.65;2.28;;;;;;;10.14;100.00;155073.59;4996466;28;20025;-73
2022/11/07 04:31:01;;;;;;;6.93;2.50;;;;;;;10.14;100.00;155073.59;4987023;28;20042;-72
2022/11/07 04:33:27;;;;;;;8.00;2.40;;;;;;;10.14;100.00;155074.84;5007024;28;20076;-72
2022/11/07 04:35:52;;;;;;;6.82;2.10;;;;;;;10.16;100.00;155078.72;5008174;28;20057;-73
2022/11/07 04:38:18;;;;;;;7.82;3.03;;;;;;;10.16;100.00;155078.72;5009727;28;20513;-73
2022/11/07 04:40:44;;;;;;;8.05;2.10;;;;;;;10.11;100.00;155067.19;5008303;28;20033;-73
2022/11/07 04:43:09;;;;;;;4.70;2.20;;;;;;;10.14;100.00;155074.84;4991055;28;20038;-73
2022/11/07 04:45:36;;;;;;;8.55;2.67;;;;;;;10.05;100.00;155050.50;5008929;28;20026;-73
2022/11/07 04:48:02;;;;;;;8.15;2.42;;;;;;;10.04;100.00;155047.91;4992181;28;20037;-72
2022/11/07 04:50:27;;;;;;;7.18;2.40;;;;;;;9.94;100.00;155024.88;4989005;28;20053;-73
2022/11/07 04:52:53;;;;;;;10.02;2.85;;;;;;;10.00;100.00;155038.97;5007490;28;20120;-73
2022/11/07 04:55:25;;;;;;;6.00;2.30;;;;;;;9.99;100.00;155036.38;5002529;28;20042;-73
2022/11/07 04:57:51;;;;;;;8.13;2.40;;;;;;;9.93;100.00;155022.28;4990418;28;20030;-73
2022/11/07 05:00:18;;;;;;;6.97;2.50;;;;;;;9.94;100.00;155024.88;4986130;28;20053;-73
2022/11/07 05:02:45;;;;;;;8.93;2.80;;;;;;;9.91;100.00;155015.88;4990241;28;20026;-73
2022/11/07 05:05:12;;;;;;;4.70;2.28;;;;;;;9.94;100.00;155023.56;5022204;28;20394;-73
2022/11/07 05:07:38;;;;;;;8.27;2.50;;;;;;;9.92;100.00;155019.69;5005446;28;20488;-72
2022/11/07 05:10:05;;;;;;;7.03;2.40;;;;;;;9.98;100.00;155032.53;5021948;28;20057;-72
2022/11/07 05:12:31;;;;;;;8.32;2.50;;;;;;;9.93;100.00;155021.00;5007848;28;20112;-71
2022/11/07 05:14:57;;;;;;;9.27;2.33;;;;;;;9.86;100.00;155003.06;5004764;28;20132;-72
2022/11/07 05:17:23;;;;;;;6.72;2.42;;;;;;;9.81;100.00;154991.47;4990814;28;20117;-72
2022/11/07 05:19:49;;;;;;;7.20;2.70;;;;;;;9.75;100.00;154977.38;5000446;28;20026;-73
2022/11/07 05:24:59;;;;;;;6.60;2.47;;;;;;;9.85;100.00;155000.47;5005978;28;20087;-72
2022/11/07 05:27:24;;;;;;;8.73;2.50;;;;;;;9.83;100.00;154996.66;5001843;28;20042;-73
2022/11/07 05:29:50;;;;;;;6.18;2.33;;;;;;;9.77;100.00;154981.25;4998606;28;20749;-73
2022/11/07 05:32:16;;;;;;;10.70;2.58;;;;;;;9.70;100.00;154963.28;5004914;28;20053;-73
2022/11/07 05:34:42;;;;;;;4.88;1.90;;;;;;;9.67;100.00;154955.59;4984774;28;20096;-73
2022/11/07 05:37:09;;;;;;;7.75;2.70;;;;;;;9.68;100.00;154959.47;5001455;28;20041;-73
2022/11/07 05:39:35;;;;;;;7.15;2.50;;;;;;;9.75;100.00;154977.38;5007287;28;20096;-72
2022/11/07 05:42:01;;;;;;;5.85;2.35;;;;;;;9.78;100.00;154983.81;5003015;28;20042;-73
2022/11/07 05:44:27;;;;;;;10.05;2.50;;;;;;;9.73;100.00;154972.25;5006122;28;20888;-73
2022/11/07 05:46:55;;;;;;;8.65;2.40;;;;;;;9.78;100.00;154983.81;5006866;28;20112;-73
2022/11/07 05:49:20;;;;;;;12.20;2.75;;;;;;;9.71;100.00;154965.84;4989455;28;20078;-73
2022/11/07 05:51:46;;;;;;;11.30;2.70;;;;;;;9.62;100.00;154944.03;5007194;28;20054;-73
2022/11/07 05:54:11;;;;;;;7.32;2.58;;;;;;;9.70;100.00;154964.59;4990234;28;20045;-73
2022/11/07 05:56:37;;;;;;;8.35;2.60;;;;;;;9.71;100.00;154965.84;5010908;28;20041;-72
2022/11/07 05:59:03;;;;;;;9.95;2.35;;;;;;;9.79;100.00;154986.34;4984498;28;20065;-73
2022/11/07 06:01:29;;;;;;;8.80;2.50;;;;;;;9.81;100.00;154991.47;4999781;28;21765;-73
2022/11/07 06:03:55;;;;;;;11.88;2.75;;;;;;;9.84;100.00;154999.19;4993085;28;20029;-73
2022/11/07 06:06:21;;;;;;;6.50;2.40;;;;;;;9.77;100.00;154981.25;5000327;28;20416;-73
2022/11/07 06:08:47;;;;;;;7.72;2.30;;;;;;;9.72;100.00;154969.72;4993824;28;20462;-72
2022/11/07 06:11:13;;;;;;;8.23;2.33;;;;;;;9.65;100.00;154951.75;4990832;28;20412;-72
2022/11/07 06:13:39;;;;;;;14.63;3.13;;;;;;;9.71;100.00;154967.13;5006386;28;20049;-72
2022/11/07 06:16:05;;;;;;;9.85;2.63;;;;;;;9.74;100.00;154973.56;5007227;28;20034;-72
2022/11/07 06:18:31;;;;;;;7.95;2.33;;;;;;;9.71;100.00;154967.13;4994615;28;20559;-73
2022/11/07 06:21:00;;;;;;;9.70;2.50;;;;;;;9.71;100.00;154965.84;5010047;28;20128;-73
2022/11/07 06:23:25;;;;;;;8.50;3.20;;;;;;;9.71;100.00;154965.84;5006553;28;20041;-73
2022/11/07 06:25:51;;;;;;;6.35;2.38;;;;;;;9.66;100.00;154954.34;4990613;28;20038;-73
2022/11/07 06:28:17;;;;;;;8.05;2.80;;;;;;;9.62;100.00;154944.03;5004909;28;20129;-72
2022/11/07 06:30:45;;;;;;;10.23;2.63;;;;;;;9.60;100.00;154938.91;5001120;28;20065;-72
2022/11/07 06:33:13;;;;;;;7.80;2.67;;;;;;;9.61;100.00;154941.50;4990839;28;20042;-72
2022/11/07 06:35:38;;;;;;;10.02;2.55;;;;;;;9.48;100.00;154909.44;5007567;28;20610;-73
2022/11/07 06:38:09;;;;;;;8.05;2.75;;;;;;;9.40;100.00;154887.63;5008731;28;20487;-72
2022/11/07 06:40:35;;;;;;;10.20;2.78;;;;;;;9.41;100.00;154891.50;5009883;28;20559;-73
2022/11/07 06:43:18;;;;;;;8.88;3.08;;;;;;;9.46;100.00;154903.06;5026099;28;20136;-73
2022/11/07 06:45:45;;;;;;;12.35;2.70;;;;;;;9.49;100.00;154912.03;4989911;28;20044;-73
2022/11/07 06:48:12;;;;;;;9.25;2.53;;;;;;;9.49;100.00;154910.72;5010169;28;20038;-72
2022/11/07 06:50:38;;;;;;;5.72;2.20;;;;;;;9.47;100.00;154906.84;5008722;28;20040;-72
2022/11/07 06:53:08;;;;;;;8.75;2.67;;;;;;;9.41;100.00;154891.50;5009740;28;20087;-73
2022/11/07 06:55:36;;;;;;;7.13;2.33;;;;;;;9.41;100.00;154891.50;4992829;28;20030;-73
2022/11/07 06:58:03;;;;;;;13.25;2.58;;;;;;;9.39;100.00;154885.09;5002267;28;20412;-73
2022/11/07 07:00:30;;;;;;;10.10;2.58;;;;;;;9.42;100.00;154894.06;5003292;28;20491;-73
2022/11/07 07:02:56;;;;;;;8.13;2.60;;;;;;;9.43;100.00;154896.59;4991450;28;20034;-73
2022/11/07 07:05:22;;;;;;;13.27;2.88;;;;;;;9.54;100.00;154924.81;4985338;28;20041;-72
2022/11/07 07:07:48;;;;;;;9.00;2.67;;;;;;;9.58;100.00;154932.53;5006772;28;20037;-73
2022/11/07 07:10:14;;;;;;;10.20;2.53;;;;;;;9.61;100.00;154941.50;5024037;28;20391;-73
2022/11/07 07:12:40;;;;;;;10.55;2.70;;;;;;;9.64;100.00;154947.91;5009370;28;20554;-73
2022/11/07 07:15:06;;;;;;;9.90;2.22;;;;;;;9.66;100.00;154954.34;5005539;28;20041;-72
2022/11/07 07:17:32;;;;;;;8.75;2.72;;;;;;;9.63;100.00;154946.63;5000759;28;20030;-72
2022/11/07 07:19:58;;;;;;;10.68;2.50;;;;;;;9.63;100.00;154946.63;4992649;28;20041;-72
2022/11/07 07:22:26;;;;;;;9.20;3.00;;;;;;;9.58;100.00;154933.78;5007818;28;20030;-72
2022/11/07 07:24:52;;;;;;;12.90;2.28;;;;;;;9.72;100.00;154969.72;4989829;28;20121;-73
2022/11/07 07:27:19;;;;;;;10.52;2.58;;;;;;;9.87;100.00;155005.59;5008908;28;20041;-73
2022/11/07 07:29:47;;;;;;;6.22;2.33;;;;;;;10.04;100.00;155049.22;5009944;28;20036;-73
2022/11/07 07:32:13;;;;;;;6.50;2.13;;;;;;;10.12;100.00;155068.47;4994073;28;20480;-73
2022/11/07 07:34:39;;;;;;;9.00;2.72;;;;;;;10.19;100.00;155085.09;4987834;28;20053;-72
2022/11/07 07:37:04;;;;;;;7.53;2.42;;;;;;;10.24;100.00;155097.94;5007079;28;20736;-72
2022/11/07 07:39:30;;;;;;;8.88;2.83;;;;;;;10.37;100.00;155131.34;5010714;28;20037;-72
2022/11/07 07:41:56;;;;;;;8.43;2.50;;;;;;;10.40;100.00;155137.78;5004494;28;20049;-72
2022/11/07 07:44:22;;;;;;;11.38;2.50;;;;;;;10.42;100.00;155144.19;5008771;28;20090;-72
2022/11/07 07:46:48;;;;;;;9.05;2.50;;;;;;;10.42;100.00;155144.19;5005438;28;20034;-72
2022/11/07 07:49:13;;;;;;;11.55;2.63;;;;;;;10.39;100.00;155135.19;4975404;28;20508;-73
2022/11/07 07:51:39;;;;;;;10.05;2.75;;;;;;;10.33;100.00;155122.38;5006886;28;20060;-73
2022/11/07 07:54:04;;;;;;;7.85;2.58;;;;;;;10.37;100.00;155131.34;5007076;28;20029;-73
2022/11/07 07:56:30;;;;;;;14.40;2.80;;;;;;;10.36;100.00;155127.50;4990142;28;20038;-73
2022/11/07 07:58:56;;;;;;;7.53;2.25;;;;;;;10.40;100.00;155139.06;4988732;28;20100;-73
2022/11/07 08:01:21;;;;;;;7.63;2.40;;;;;;;10.49;100.00;155160.84;5001177;28;20232;-72
2022/11/07 08:03:48;;;;;;;11.20;2.35;;;;;;;10.63;100.00;155195.50;5001199;28;20109;-72
2022/11/07 08:06:14;;;;;;;8.75;2.72;;;;;;;10.71;100.00;155216.03;5001225;28;20127;-73
2022/11/07 08:08:40;;;;;;;9.80;2.90;;;;;;;10.77;100.00;155230.13;4973610;28;20569;-73
2022/11/07 08:11:07;;;;;;;9.40;2.65;;;;;;;10.90;100.00;155264.75;4990496;28;20068;-72
2022/11/07 08:13:33;;;;;;;12.88;2.45;;;;;;;11.02;100.00;155293.00;4991204;28;20105;-72
2022/11/07 08:16:01;;;;;;;9.70;2.35;;;;;;;11.16;100.00;155327.66;4989796;28;20112;-73
2022/11/07 08:18:27;;;;;;;6.40;1.98;;;;;;;11.30;100.00;155363.56;4998287;28;20487;-73
2022/11/07 08:20:54;;;;;;;12.02;2.35;;;;;;;11.37;100.00;155381.56;5007933;28;20040;-73
2022/11/07 08:23:22;;;;;;;10.10;2.13;;;;;;;11.42;100.00;155393.13;5004681;28;20034;-73
2022/11/07 08:25:55;;;;;;;10.93;2.30;;;;;;;11.35;100.00;155376.44;5006088;28;20045;-73
2022/11/07 08:28:22;;;;;;;8.77;1.92;;;;;;;11.43;100.00;155397.00;5012203;28;20691;-73
2022/11/07 08:30:58;;;;;;;6.40;2.00;;;;;;;11.42;100.00;155394.41;5007463;28;20050;-74
2022/11/07 08:33:24;;;;;;;9.27;2.25;;;;;;;11.46;100.00;155404.66;4989487;28;20415;-73
2022/11/07 08:35:50;;;;;;;9.75;2.30;;;;;;;11.42;100.00;155394.41;5005215;28;20055;-73
2022/11/07 08:38:15;;;;;;;10.48;2.58;;;;;;;11.49;100.00;155411.13;5000864;28;20034;-73
2022/11/07 08:40:41;;;;;;;12.65;2.58;;;;;;;11.50;100.00;155414.94;5020688;28;20034;-72
2022/11/07 08:43:06;;;;;;;8.05;2.10;;;;;;;11.46;100.00;155404.66;4989878;28;20034;-73
2022/11/07 08:45:32;;;;;;;11.13;2.35;;;;;;;11.50;100.00;155413.66;5006039;28;20034;-73
2022/11/07 08:47:58;;;;;;;12.30;2.85;;;;;;;11.45;100.00;155402.13;5006538;28;20038;-72
2022/11/07 08:50:25;;;;;;;10.05;2.80;;;;;;;11.41;100.00;155390.56;5005853;28;20121;-73
2022/11/07 08:52:51;;;;;;;7.28;2.30;;;;;;;11.38;100.00;155384.16;4995244;28;20496;-73
2022/11/07 08:55:17;;;;;;;7.22;2.35;;;;;;;11.39;100.00;155386.69;4994572;28;20053;-75
2022/11/07 08:57:42;;;;;;;10.80;2.30;;;;;;;11.34;100.00;155373.88;5007734;28;20399;-73
2022/11/07 09:00:08;;;;;;;13.80;2.75;;;;;;;11.34;100.00;155373.88;5004019;28;20504;-73
2022/11/07 09:02:34;;;;;;;9.77;2.20;;;;;;;11.36;100.00;155377.69;4990424;28;20097;-73
2022/11/07 09:05:00;;;;;;;11.25;2.50;;;;;;;11.52;100.00;155418.78;5006639;28;20045;-73
2022/11/07 09:07:25;;;;;;;9.98;2.60;;;;;;;11.76;100.00;155479.13;5002941;28;20053;-72
2022/11/07 09:09:51;;;;;;;9.68;2.78;;;;;;;11.77;100.00;155481.72;4974950;28;20034;-73
2022/11/07 09:12:16;;;;;;;9.13;2.45;;;;;;;11.68;100.00;155459.88;5005736;28;20120;-73
2022/11/07 09:14:42;;;;;;;12.75;2.65;;;;;;;11.61;100.00;155440.63;5006328;28;20499;-73
2022/11/07 09:17:07;;;;;;;16.05;2.55;;;;;;;11.76;100.00;155479.13;4971674;28;20046;-73
2022/11/07 09:19:33;;;;;;;10.82;2.58;;;;;;;11.87;100.00;155506.13;4990557;28;20132;-72
2022/11/07 09:21:59;;;;;;;12.30;2.40;;;;;;;12.08;100.00;155558.81;5005812;28;20030;-73
2022/11/07 09:24:24;;;;;;;11.40;2.67;;;;;;;12.27;100.00;155607.59;4973663;28;20466;-73
2022/11/07 09:26:50;;;;;;;8.80;2.60;;;;;;;12.37;100.00;155630.72;5006833;28;20043;-73
2022/11/07 09:29:16;;;;;;;8.60;2.20;;;;;;;12.35;100.00;155626.84;5002302;28;20495;-71
2022/11/07 09:31:42;;;;;;;7.00;2.03;;;;;;;12.35;100.00;155625.56;5021568;28;20068;-73
2022/11/07 09:34:07;;;;;;;10.75;2.92;;;;;;;12.43;100.00;155647.44;4970559;28;20069;-73
2022/11/07 09:36:33;;;;;;;10.20;2.15;;;;;;;12.55;100.00;155676.97;5004950;28;20033;-72
2022/11/07 09:38:59;;;;;;;7.28;2.10;;;;;;;12.69;100.00;155711.63;4995389;28;20069;-73
2022/11/07 09:41:48;;;;;;;9.43;2.45;;;;;;;12.78;100.00;155733.47;5005293;28;20042;-73
2022/11/07 09:44:26;;;;;;;8.77;2.22;;;;;;;12.83;100.00;155747.63;5003742;28;20050;-73
2022/11/07 09:47:05;;;;;;;10.02;2.33;;;;;;;12.83;100.00;155746.34;4988179;28;20045;-73
2022/11/07 09:50:01;;;;;;;8.00;2.63;;;;;;;12.89;100.00;155760.47;4999770;28;20066;-73
2022/11/07 09:52:37;;;;;;;11.57;2.45;;;;;;;13.11;100.00;155817.00;4996177;28;20492;-72
2022/11/07 09:55:23;;;;;;;10.05;2.10;;;;;;;13.23;100.00;155846.56;5003938;28;20034;-73
2022/11/07 09:57:54;;;;;;;12.52;2.88;;;;;;;13.18;100.00;155834.97;4985748;28;20034;-73
2022/11/07 10:00:21;;;;;;;12.70;2.30;;;;;;;12.95;100.00;155777.16;5005856;28;20137;-73
2022/11/07 10:02:59;;;;;;;16.02;2.50;;;;;;;12.75;100.00;155727.06;5001806;28;20026;-73
2022/11/07 10:06:07;;;;;;;13.88;2.38;;;;;;;12.64;100.00;155698.81;4999049;28;20069;-73
2022/11/07 10:08:43;;;;;;;12.35;2.42;;;;;;;12.49;100.00;155660.25;5005094;28;20026;-73
2022/11/07 10:11:27;;;;;;;10.93;2.47;;;;;;;12.42;100.00;155643.56;4961746;28;20049;-73
2022/11/07 10:14:15;;;;;;;14.63;2.85;;;;;;;12.41;100.00;155642.28;5002864;28;20045;-74
2022/11/07 10:16:59;;;;;;;11.90;2.40;;;;;;;12.57;100.00;155682.09;4999964;28;20088;-74
2022/11/07 10:19:44;;;;;;;8.63;2.25;;;;;;;12.57;100.00;155680.81;4988309;28;20085;-73
2022/11/07 10:22:24;;;;;;;11.82;2.90;;;;;;;12.61;100.00;155691.09;5021021;28;20069;-73
2022/11/07 10:25:04;;;;;;;11.02;2.53;;;;;;;12.61;100.00;155691.09;4988662;28;20041;-73
2022/11/07 10:27:30;;;;;;;10.70;2.80;;;;;;;12.68;100.00;155709.09;5004019;28;20044;-73
2022/11/07 10:29:56;;;;;;;10.05;2.33;;;;;;;12.69;100.00;155711.63;4988450;28;20030;-74
2022/11/07 10:32:38;;;;;;;10.18;2.38;;;;;;;12.66;100.00;155705.22;5001322;28;20038;-74
2022/11/07 10:35:23;;;;;;;11.57;2.70;;;;;;;12.80;100.00;155739.88;4988299;28;20073;-73
2022/11/07 10:38:15;;;;;;;13.45;2.72;;;;;;;13.07;100.00;155806.69;4973589;28;20108;-73
2022/11/07 10:40:41;;;;;;;11.40;2.72;;;;;;;13.27;100.00;155856.81;4991791;28;20042;-74
2022/11/07 10:43:14;;;;;;;10.73;2.10;;;;;;;13.35;100.00;155876.16;4991984;28;20076;-74
2022/11/07 10:45:40;;;;;;;9.10;2.53;;;;;;;13.22;100.00;155845.28;5008947;28;20825;-74
2022/11/07 10:48:06;;;;;;;7.80;2.38;;;;;;;13.00;100.00;155790.00;4990092;28;20050;-74
2022/11/07 10:50:32;;;;;;;12.80;2.97;;;;;;;12.87;100.00;155756.59;4990184;28;20084;-74
2022/11/07 10:53:02;;;;;;;10.73;2.55;;;;;;;12.91;100.00;155766.88;5025325;28;20037;-74
2022/11/07 10:55:32;;;;;;;10.02;2.50;;;;;;;13.03;100.00;155796.41;4989150;28;20556;-73
2022/11/07 10:58:04;;;;;;;11.48;2.35;;;;;;;13.05;100.00;155801.56;5009505;28;20045;-73
2022/11/07 11:00:36;;;;;;;;;;;;;;;13.02;100.00;155793.88;4999697;28;20045;-73
2022/11/07 11:03:02;;;;;;;9.13;1.95;;;;;;;12.85;100.00;155751.47;5008458;28;19921;-73
2022/11/07 11:05:39;;;;;;;8.20;2.10;;;;;;;12.90;100.00;155763.03;4991468;28;20518;-73
2022/11/07 11:08:15;;;;;;;13.00;2.45;;;;;;;12.82;100.00;155743.75;4984962;28;20046;-73
2022/11/07 11:10:41;;;;;;;8.05;2.00;;;;;;;12.80;100.00;155739.88;5007813;28;20043;-73
2022/11/07 11:13:25;;;;;;;11.38;2.60;;;;;;;12.73;100.00;155720.63;4991691;28;20037;-73
2022/11/07 11:15:50;;;;;;;10.90;2.42;;;;;;;12.74;100.00;155724.47;4976813;28;20030;-73
2022/11/07 11:18:17;;;;;;;9.45;2.47;;;;;;;12.64;100.00;155700.09;4991259;28;20037;-72
2022/11/07 11:20:53;;;;;;;15.27;2.78;;;;;;;12.67;100.00;155706.50;5006953;28;20047;-73
2022/11/07 11:23:22;;;;;;;12.90;3.00;;;;;;;12.66;100.00;155705.22;5009101;28;20049;-73
2022/11/07 11:25:50;;;;;;;10.85;2.40;;;;;;;12.65;100.00;155702.63;4988880;28;20065;-73
2022/11/07 11:28:24;;;;;;;11.60;2.40;;;;;;;12.57;100.00;155682.09;5004002;28;20037;-74
2022/11/07 11:30:57;;;;;;;13.75;2.70;;;;;;;12.58;100.00;155683.38;5007125;28;20033;-73
2022/11/07 11:33:29;;;;;;;11.95;2.83;;;;;;;12.57;100.00;155682.09;5007145;28;20906;-74
2022/11/07 11:36:01;;;;;;;17.30;2.83;;;;;;;12.58;100.00;155683.38;5007746;28;20038;-73
2022/11/07 11:38:36;;;;;;;15.73;2.90;;;;;;;12.59;100.00;155685.97;5009640;28;20063;-72